Flight Track Log - Related Links

Times and Time Zones

All times are in EDT time to prevent confusion due to time zone crossing. See the CLH304 flight status page for this flight to view local times or setup timezone preferences in your user account.

Time Position Orientation Groundspeed Altitude Reporting Facility
EDT Latitude Longitude Course Direction KTS MPH feet Rate Location/Type
Sat 03:25:00 PM 49.3214 8.4018 187° South  Level Estimated
Sat 03:26:00 PM 49.2039 8.3786 187° South  Level Estimated
Sat 03:27:00 PM 49.0864 8.3555 187° South  Level Estimated
Sat 03:28:00 PM 48.9689 8.3326 187° South  Level Estimated
Sat 03:29:00 PM 48.8514 8.3097 187° South  Level Estimated
Sat 03:30:00 PM 48.7338 8.2870 187° South  Level Estimated
Sat 03:31:00 PM 48.6163 8.2644 187° South  Level Estimated
Sat 03:32:00 PM 48.4987 8.2419 187° South  Level Estimated
Sat 03:33:00 PM 48.3812 8.2194 187° South  Level Estimated
Sat 03:34:00 PM 48.2636 8.1971 187° South  Level Estimated
Sat 03:35:00 PM 48.1461 8.1749 187° South  Level Estimated
Sat 03:36:00 PM 48.0285 8.1528 187° South  Level Estimated
Sat 03:37:00 PM 47.9110 8.1308 187° South  Level Estimated
Sat 03:38:00 PM 47.7934 8.1089 187° South  Level Estimated
Sat 03:39:00 PM 47.6758 8.0871 187° South  Level Estimated
Sat 03:40:00 PM 47.5583 8.0654 187° South  Level Estimated
Sat 03:41:00 PM 47.4407 8.0438 187° South  Level Estimated
Sat 03:42:00 PM 47.3231 8.0223 187° South  Level Estimated
Sat 03:43:00 PM 47.2055 8.0008 187° South  Level Estimated
Sat 03:44:00 PM 47.0879 7.9795 187° South  Level Estimated
Sat 03:45:00 PM 46.9703 7.9583 187° South  Level Estimated
Sat 03:46:00 PM 46.8527 7.9371 187° South  Level Estimated
Sat 03:47:00 PM 46.7351 7.9161 187° South  Level Estimated
Sat 03:48:00 PM 46.6175 7.8951 187° South  Level Estimated
Sat 03:49:00 PM 46.4999 7.8742 187° South  Level Estimated
Sat 03:50:00 PM 46.3823 7.8535 187° South  Level Estimated
Sat 03:51:00 PM 46.2647 7.8328 187° South  Level Estimated
Sat 03:52:00 PM 46.1470 7.8122 187° South  Level Estimated
Sat 03:53:00 PM 46.0294 7.7917 187° South  Level Estimated
Sat 03:54:00 PM 45.9118 7.7712 187° South  Level Estimated
Sat 03:55:00 PM 45.7942 7.7509 187° South  Level Estimated
Sat 03:56:00 PM 45.6765 7.7307 187° South  Level Estimated
Sat 03:57:00 PM 45.5589 7.7105 187° South  Level Estimated
Sat 03:58:00 PM 45.4412 7.6904 187° South  Level Estimated
Sat 03:59:00 PM 45.3236 7.6704 187° South  Level Estimated
Sat 04:00:00 PM 45.2059 7.6505 187° South  Level Estimated
Sat 04:01:00 PM 45.2008 7.6496 187° South  Level Estimated
Sat 04:02:00 PM 45.2008 7.6496 35° Northeast  Level Estimated
Sat 04:03:00 PM 45.2008 7.6496 35° Northeast  Level Estimated
Sat 04:04:00 PM 45.2008 7.6496 35° Northeast  Level Estimated
Sat 04:05:00 PM 45.2008 7.6496 35° Northeast  Level Estimated
Sat 04:06:00 PM 45.2008 7.6496 35° Northeast  Level Estimated
Sat 04:07:00 PM 45.2008 7.6496 35° Northeast  Level Estimated
Sat 04:08:00 PM 45.2008 7.6496 35° Northeast  Level Estimated
Sat 04:09:00 PM 45.2008 7.6496 35° Northeast  Level Estimated
Sat 04:10:00 PM 45.2008 7.6496 35° Northeast  Level Estimated
Sat 04:11:00 PM 45.2008 7.6496 35° Northeast  Level Estimated
Sat 04:12:00 PM 45.2008 7.6496 35° Northeast  Level Estimated
Sat 04:13:00 PM 45.2008 7.6496 35° Northeast  Level Estimated
Sat 04:14:00 PM 45.2008 7.6496 35° Northeast  Level Estimated

Login

Don't have an account? Register now (free) for customized features, flight alerts, and more!